createdAt,value
2023-01-11T00:00:00.024Z,8.40
2023-01-11T00:02:35.467Z,8.30
2023-01-11T00:05:03.664Z,8.44
2023-01-11T00:07:42.260Z,8.43
2023-01-11T00:10:14.668Z,8.46
2023-01-11T00:12:44.874Z,8.52
2023-01-11T00:15:15.129Z,8.51
2023-01-11T00:17:43.423Z,8.53
2023-01-11T00:20:12.452Z,8.53
2023-01-11T00:22:47.239Z,8.56
2023-01-11T00:25:16.391Z,8.53
2023-01-11T00:27:48.883Z,8.63
2023-01-11T00:30:17.497Z,8.58
2023-01-11T00:32:57.153Z,8.63
2023-01-11T00:35:31.139Z,8.71
2023-01-11T00:38:02.648Z,8.63
2023-01-11T00:40:38.688Z,8.63
2023-01-11T00:43:27.746Z,8.62
2023-01-11T00:46:27.830Z,8.67
2023-01-11T00:48:55.918Z,8.66
2023-01-11T00:51:28.139Z,8.63
2023-01-11T00:53:58.459Z,8.75
2023-01-11T00:56:28.040Z,8.81
2023-01-11T00:59:06.804Z,8.85
2023-01-11T01:01:39.447Z,8.82
2023-01-11T01:04:07.522Z,8.84
2023-01-11T01:06:36.910Z,8.91
2023-01-11T01:09:09.299Z,8.92
2023-01-11T01:11:38.940Z,8.89
2023-01-11T01:14:29.402Z,9.01
2023-01-11T01:17:01.766Z,9.00
2023-01-11T01:19:37.221Z,9.01
2023-01-11T01:22:11.189Z,8.98
2023-01-11T01:24:40.732Z,9.03
2023-01-11T01:27:09.294Z,9.03
2023-01-11T01:29:40.356Z,9.08
2023-01-11T01:32:08.778Z,9.10
2023-01-11T01:34:39.179Z,9.07
2023-01-11T01:37:08.632Z,9.08
2023-01-11T01:39:36.810Z,9.10
2023-01-11T01:42:15.127Z,9.20
2023-01-11T01:45:00.052Z,9.23
2023-01-11T01:47:36.099Z,9.27
2023-01-11T01:50:09.409Z,9.33
2023-01-11T01:52:37.922Z,9.30
2023-01-11T01:55:12.312Z,9.36
2023-01-11T01:57:45.254Z,9.34
2023-01-11T02:00:15.099Z,9.26
2023-01-11T02:02:46.399Z,9.38
2023-01-11T02:05:17.339Z,9.27
2023-01-11T02:07:55.044Z,9.41
2023-01-11T02:10:31.989Z,9.46
2023-01-11T02:13:05.237Z,9.50
2023-01-11T02:15:45.528Z,9.46
2023-01-11T02:18:15.196Z,9.53
2023-01-11T02:21:09.881Z,9.56
2023-01-11T02:24:21.113Z,9.53
2023-01-11T02:27:19.187Z,9.52
2023-01-11T02:30:13.682Z,9.62
2023-01-11T02:33:08.264Z,9.65
2023-01-11T02:35:52.093Z,9.62
2023-01-11T02:38:30.602Z,9.62
2023-01-11T02:41:10.175Z,9.58
2023-01-11T02:44:09.559Z,9.58
2023-01-11T02:46:51.079Z,9.74
2023-01-11T02:49:29.650Z,9.78
2023-01-11T02:52:09.968Z,9.78
2023-01-11T02:54:44.491Z,9.76
2023-01-11T02:57:28.303Z,9.80
2023-01-11T02:59:59.946Z,9.85
2023-01-11T03:02:47.032Z,9.78
2023-01-11T03:05:16.200Z,9.85
2023-01-11T03:07:57.300Z,9.83
2023-01-11T03:10:39.844Z,9.90
2023-01-11T03:13:26.626Z,9.87
2023-01-11T03:16:22.680Z,9.89
2023-01-11T03:19:13.504Z,9.94
2023-01-11T03:22:21.951Z,9.97
2023-01-11T03:25:05.317Z,9.91
2023-01-11T03:27:53.411Z,9.96
2023-01-11T03:30:46.909Z,9.94
2023-01-11T03:33:29.328Z,10.01
2023-01-11T03:36:05.185Z,9.97
2023-01-11T03:38:42.559Z,9.97
2023-01-11T03:41:18.892Z,9.99
2023-01-11T03:43:53.072Z,10.01
2023-01-11T03:46:27.665Z,10.07
2023-01-11T03:49:01.188Z,10.11
2023-01-11T03:51:37.249Z,10.07
2023-01-11T03:54:09.983Z,10.10
2023-01-11T03:56:55.149Z,10.13
2023-01-11T03:59:29.411Z,10.00
2023-01-11T04:01:58.825Z,10.01
2023-01-11T04:04:37.881Z,10.23
2023-01-11T04:07:14.998Z,10.18
2023-01-11T04:09:47.314Z,10.22
2023-01-11T04:12:15.507Z,10.27
2023-01-11T04:14:55.323Z,10.19
2023-01-11T04:17:26.243Z,10.27
2023-01-11T04:19:54.458Z,10.21
2023-01-11T04:22:34.342Z,10.21
2023-01-11T04:25:02.505Z,10.17
2023-01-11T04:27:44.427Z,10.30
2023-01-11T04:30:15.902Z,10.33
2023-01-11T04:32:44.600Z,10.31
2023-01-11T04:35:14.124Z,10.31
2023-01-11T04:37:45.432Z,10.41
2023-01-11T04:40:15.989Z,10.40
2023-01-11T04:42:43.041Z,10.36
2023-01-11T04:45:12.439Z,10.37
2023-01-11T04:47:56.824Z,10.37
2023-01-11T04:50:27.566Z,10.46
2023-01-11T04:52:59.582Z,10.41
2023-01-11T04:55:27.600Z,10.37
2023-01-11T04:57:59.447Z,10.40
2023-01-11T05:00:29.799Z,10.33
2023-01-11T05:03:00.468Z,10.32
2023-01-11T05:05:37.877Z,10.26
2023-01-11T05:08:08.667Z,10.34
2023-01-11T05:10:42.811Z,10.33
2023-01-11T05:13:11.269Z,10.23
2023-01-11T05:15:45.798Z,10.23
2023-01-11T05:18:23.745Z,10.16
2023-01-11T05:20:52.030Z,10.22
2023-01-11T05:23:39.037Z,10.16
2023-01-11T05:26:15.195Z,10.20
2023-01-11T05:28:43.653Z,10.16
2023-01-11T05:31:12.121Z,10.15
2023-01-11T05:33:41.062Z,10.01
2023-01-11T05:36:19.689Z,10.08
2023-01-11T05:38:58.388Z,10.14
2023-01-11T05:41:29.679Z,10.06
2023-01-11T05:44:19.579Z,10.01
2023-01-11T05:47:03.209Z,10.00
2023-01-11T05:49:37.564Z,9.93
2023-01-11T05:52:12.185Z,9.90
2023-01-11T05:55:10.453Z,9.81
2023-01-11T05:57:58.781Z,9.84
2023-01-11T06:00:28.117Z,9.81
2023-01-11T06:02:59.684Z,9.82
2023-01-11T06:05:39.871Z,9.85
2023-01-11T06:08:11.894Z,9.82
2023-01-11T06:10:42.156Z,9.68
2023-01-11T06:13:28.878Z,9.73
2023-01-11T06:16:01.369Z,9.70
2023-01-11T06:18:39.399Z,9.76
2023-01-11T06:21:14.681Z,9.74
2023-01-11T06:23:59.348Z,9.66
2023-01-11T06:26:34.431Z,9.61
2023-01-11T06:29:03.000Z,9.63
2023-01-11T06:31:34.972Z,9.57
2023-01-11T06:34:06.131Z,9.60
2023-01-11T06:36:36.101Z,9.48
2023-01-11T06:39:11.386Z,9.50
2023-01-11T06:41:41.184Z,9.49
2023-01-11T06:44:09.519Z,9.32
2023-01-11T06:46:47.757Z,9.36
2023-01-11T06:49:17.010Z,9.29
2023-01-11T06:51:45.914Z,9.21
2023-01-11T06:54:14.888Z,9.13
2023-01-11T06:56:46.270Z,9.14
2023-01-11T06:59:35.470Z,9.04
2023-01-11T07:02:19.617Z,9.07
2023-01-11T07:04:48.100Z,8.93
2023-01-11T07:07:33.338Z,9.09
2023-01-11T07:10:03.327Z,9.07
2023-01-11T07:12:36.347Z,8.99
2023-01-11T07:15:21.220Z,8.91
2023-01-11T07:17:55.802Z,8.77
2023-01-11T07:20:24.501Z,8.83
2023-01-11T07:22:57.511Z,8.82
2023-01-11T07:25:33.128Z,8.82
2023-01-11T07:28:11.619Z,8.76
2023-01-11T07:30:58.123Z,8.69
2023-01-11T07:33:40.208Z,8.81
2023-01-11T07:36:19.823Z,8.86
2023-01-11T07:38:55.920Z,8.81
2023-01-11T07:42:01.522Z,8.85
2023-01-11T07:45:23.254Z,8.96
2023-01-11T07:48:14.025Z,8.99
2023-01-11T07:54:44.576Z,9.09
2023-01-11T07:57:17.864Z,8.88
2023-01-11T07:59:57.925Z,9.03
2023-01-11T08:02:26.853Z,9.01
2023-01-11T08:08:09.697Z,8.97
2023-01-11T08:10:43.808Z,8.85
2023-01-11T08:13:32.101Z,8.78
2023-01-11T08:16:00.798Z,8.72
2023-01-11T08:18:29.957Z,8.58
2023-01-11T08:21:04.478Z,8.44
2023-01-11T08:23:43.996Z,8.34
2023-01-11T08:26:20.438Z,8.15
2023-01-11T08:28:48.640Z,8.29
2023-01-11T08:31:18.205Z,8.17
2023-01-11T08:33:47.056Z,8.10
2023-01-11T08:36:16.828Z,8.00
2023-01-11T08:38:48.932Z,8.00
2023-01-11T08:41:17.187Z,7.89
2023-01-11T08:43:47.395Z,7.88
2023-01-11T08:46:16.089Z,7.91
2023-01-11T08:48:47.224Z,7.89
2023-01-11T08:51:25.511Z,7.67
2023-01-11T08:53:54.046Z,7.63
2023-01-11T08:56:25.252Z,7.82
2023-01-11T08:58:53.654Z,7.89
2023-01-11T09:01:22.995Z,7.93
2023-01-11T09:03:57.980Z,7.89
2023-01-11T09:06:34.325Z,7.80
2023-01-11T09:09:02.200Z,7.85
2023-01-11T09:14:23.805Z,7.84
2023-01-11T09:16:52.667Z,7.68
2023-01-11T09:19:22.869Z,7.52
2023-01-11T09:21:53.376Z,7.60
2023-01-11T09:24:25.154Z,7.62
2023-01-11T09:26:57.008Z,7.80
2023-01-11T09:29:25.210Z,7.83
2023-01-11T09:31:54.668Z,8.17
2023-01-11T09:34:25.433Z,8.76
2023-01-11T09:36:58.922Z,9.12
2023-01-11T09:39:29.084Z,9.33
2023-01-11T09:42:32.986Z,9.63
2023-01-11T09:45:10.932Z,10.21
2023-01-11T09:47:49.757Z,10.37
2023-01-11T09:50:22.169Z,10.63
2023-01-11T09:52:57.892Z,10.43
2023-01-11T09:55:36.591Z,10.41
2023-01-11T09:58:32.086Z,10.11
2023-01-11T10:01:10.942Z,9.53
2023-01-11T10:04:13.072Z,9.28
2023-01-11T10:06:50.441Z,9.12
2023-01-11T10:18:23.320Z,8.87
2023-01-11T10:19:18.410Z,9.05
2023-01-11T10:21:48.064Z,9.61
2023-01-11T10:24:31.736Z,10.01
2023-01-11T10:27:09.685Z,10.06
2023-01-11T10:29:58.711Z,10.48
2023-01-11T10:32:53.852Z,9.85
2023-01-11T10:36:03.274Z,10.13
2023-01-11T10:38:55.070Z,10.21
2023-01-11T10:41:38.530Z,10.48
2023-01-11T10:44:17.923Z,10.12
2023-01-11T10:46:50.966Z,10.28
2023-01-11T10:49:41.165Z,10.21
2023-01-11T10:52:26.692Z,9.73
2023-01-11T10:55:02.554Z,9.75
2023-01-11T10:58:01.450Z,9.86
2023-01-11T11:01:17.471Z,9.88
2023-01-11T11:04:13.439Z,9.78
2023-01-11T11:06:55.852Z,9.85
2023-01-11T11:09:34.599Z,9.76
2023-01-11T11:12:13.101Z,9.81
2023-01-11T11:14:51.632Z,9.85
2023-01-11T11:17:26.033Z,9.57
2023-01-11T11:19:54.829Z,9.53
2023-01-11T11:22:25.789Z,9.62
2023-01-11T11:24:59.571Z,9.57
2023-01-11T11:27:32.753Z,9.50
2023-01-11T11:30:04.682Z,9.54
2023-01-11T11:32:36.778Z,9.54
2023-01-11T11:35:36.722Z,9.59
2023-01-11T11:38:23.705Z,9.63
2023-01-11T11:41:08.209Z,9.85
2023-01-11T11:44:11.200Z,10.06
2023-01-11T11:46:42.121Z,10.29
2023-01-11T11:49:18.209Z,10.65
2023-01-11T11:52:02.932Z,10.37
2023-01-11T11:54:49.524Z,10.48
2023-01-11T11:57:28.340Z,10.50
2023-01-11T12:00:07.818Z,10.40
2023-01-11T12:02:43.867Z,10.12
2023-01-11T12:05:12.549Z,10.02
2023-01-11T12:07:54.604Z,10.17
2023-01-11T12:10:25.477Z,10.08
2023-01-11T12:12:56.205Z,10.49
2023-01-11T12:15:30.198Z,10.43
2023-01-11T12:18:25.052Z,10.38
2023-01-11T12:20:57.268Z,10.73
2023-01-11T12:23:28.331Z,10.74
2023-01-11T12:26:14.624Z,10.47
2023-01-11T12:29:12.155Z,10.25
2023-01-11T12:31:56.636Z,10.48
2023-01-11T12:34:41.754Z,10.37
2023-01-11T12:37:25.379Z,10.12
2023-01-11T12:40:02.845Z,9.91
2023-01-11T12:42:47.864Z,9.68
2023-01-11T12:45:26.301Z,9.75
2023-01-11T12:48:49.941Z,9.88
2023-01-11T12:51:37.024Z,9.83
2023-01-11T12:54:21.331Z,9.72
2023-01-11T12:57:07.466Z,9.94
2023-01-11T12:59:59.874Z,9.87
2023-01-11T13:02:43.353Z,9.86
2023-01-11T13:05:24.640Z,9.83
2023-01-11T13:08:03.893Z,9.93
2023-01-11T13:10:40.833Z,9.84
2023-01-11T13:13:15.174Z,9.88
2023-01-11T13:15:53.719Z,9.70
2023-01-11T13:18:32.794Z,9.74
2023-01-11T13:21:13.466Z,9.69
2023-01-11T13:24:48.644Z,9.54
2023-01-11T13:27:22.422Z,9.57
2023-01-11T13:29:53.428Z,9.61
2023-01-11T13:32:24.703Z,9.87
2023-01-11T13:34:56.774Z,10.02
2023-01-11T13:37:34.121Z,9.87
2023-01-11T13:40:18.547Z,9.83
2023-01-11T13:42:52.543Z,10.04
2023-01-11T13:45:29.688Z,9.74
2023-01-11T13:48:06.876Z,10.04
2023-01-11T13:50:49.658Z,10.24
2023-01-11T13:53:29.310Z,10.29
2023-01-11T13:56:18.397Z,9.77
2023-01-11T13:58:58.008Z,9.72
2023-01-11T14:01:53.730Z,9.86
2023-01-11T14:04:53.917Z,9.92
2023-01-11T14:07:46.272Z,9.82
2023-01-11T14:10:31.570Z,9.54
2023-01-11T14:13:59.196Z,9.46
2023-01-11T14:16:37.930Z,9.34
2023-01-11T14:19:26.604Z,9.28
2023-01-11T14:22:14.198Z,9.09
2023-01-11T14:25:01.567Z,9.14
2023-01-11T14:27:45.787Z,9.12
2023-01-11T14:31:05.425Z,9.09
2023-01-11T14:33:59.311Z,9.09
2023-01-11T14:36:58.151Z,9.12
2023-01-11T14:40:08.730Z,9.04
2023-01-11T14:43:04.749Z,8.93
2023-01-11T14:46:10.329Z,8.92
2023-01-11T14:48:50.968Z,8.83
2023-01-11T14:51:43.245Z,8.70
2023-01-11T14:54:21.865Z,8.60
2023-01-11T14:56:56.887Z,8.54
2023-01-11T14:59:36.716Z,8.65
2023-01-11T15:02:30.880Z,8.59
2023-01-11T15:05:30.007Z,8.58
2023-01-11T15:08:23.795Z,8.67
2023-01-11T15:10:58.385Z,8.66
2023-01-11T15:13:37.723Z,8.68
2023-01-11T15:16:34.535Z,8.63
2023-01-11T15:19:08.964Z,8.67
2023-01-11T15:21:44.858Z,8.56
2023-01-11T15:24:24.407Z,8.48
2023-01-11T15:26:52.669Z,8.45
2023-01-11T15:29:24.020Z,8.38
2023-01-11T15:32:07.417Z,8.40
2023-01-11T15:34:45.996Z,8.36
2023-01-11T15:37:49.259Z,8.28
2023-01-11T15:40:22.612Z,8.25
2023-01-11T15:43:36.280Z,8.22
2023-01-11T15:46:56.470Z,8.20
2023-01-11T15:50:11.669Z,8.08
2023-01-11T15:53:16.275Z,8.27
2023-01-11T15:56:26.075Z,8.33
2023-01-11T15:59:30.607Z,8.40
2023-01-11T16:06:11.353Z,8.35
2023-01-11T16:09:06.998Z,8.29
2023-01-11T16:11:45.344Z,8.35
2023-01-11T16:14:55.735Z,8.15
2023-01-11T16:17:29.167Z,8.30
2023-01-11T16:19:58.325Z,8.12
2023-01-11T16:22:29.899Z,8.00
2023-01-11T16:25:14.770Z,8.21
2023-01-11T16:27:53.057Z,7.96
2023-01-11T16:30:30.235Z,7.87
2023-01-11T16:33:17.162Z,8.16
2023-01-11T16:35:48.411Z,8.15
2023-01-11T16:38:26.338Z,8.09
2023-01-11T16:41:01.693Z,8.16
2023-01-11T16:43:35.083Z,8.26
2023-01-11T16:46:04.790Z,8.24
2023-01-11T16:48:36.007Z,8.25
2023-01-11T16:51:12.076Z,8.19
2023-01-11T16:53:43.839Z,8.15
2023-01-11T16:56:20.947Z,8.16
2023-01-11T16:59:21.400Z,8.10
2023-01-11T17:01:53.458Z,8.04
2023-01-11T17:04:31.638Z,8.07
2023-01-11T17:10:28.241Z,8.11
2023-01-11T17:13:43.708Z,8.02
2023-01-11T17:16:21.126Z,7.73
2023-01-11T17:18:53.707Z,7.76
2023-01-11T17:21:32.258Z,7.61
2023-01-11T17:24:05.237Z,7.72
2023-01-11T17:26:43.361Z,7.69
2023-01-11T17:29:27.085Z,7.83
2023-01-11T17:31:56.196Z,7.68
2023-01-11T17:34:35.516Z,7.62
2023-01-11T17:37:10.468Z,7.57
2023-01-11T17:39:44.821Z,7.57
2023-01-11T17:42:33.632Z,7.60
2023-01-11T17:45:20.633Z,7.65
2023-01-11T17:47:52.244Z,7.62
2023-01-11T17:50:42.278Z,7.66
2023-01-11T17:53:18.757Z,7.71
2023-01-11T17:56:02.732Z,7.50
2023-01-11T17:58:36.693Z,7.60
2023-01-11T18:01:25.629Z,7.70
2023-01-11T18:03:58.563Z,7.87
2023-01-11T18:06:33.778Z,7.71
2023-01-11T18:09:06.974Z,7.76
2023-01-11T18:11:43.075Z,7.77
2023-01-11T18:14:25.137Z,7.88
2023-01-11T18:17:01.839Z,7.77
2023-01-11T18:19:41.184Z,7.96
2023-01-11T18:22:30.342Z,7.78
2023-01-11T18:25:08.012Z,7.79
2023-01-11T18:27:38.861Z,7.79
2023-01-11T18:30:11.533Z,7.93
2023-01-11T18:32:51.999Z,8.01
2023-01-11T18:35:29.506Z,8.02
2023-01-11T18:38:21.589Z,7.97
2023-01-11T18:41:00.257Z,7.92
2023-01-11T18:43:51.527Z,8.01
2023-01-11T18:46:37.601Z,7.79
2023-01-11T18:49:16.355Z,7.76
2023-01-11T18:51:45.315Z,7.91
2023-01-11T18:54:16.975Z,7.93
2023-01-11T18:56:45.519Z,8.02
2023-01-11T18:59:13.768Z,7.98
2023-01-11T19:01:56.532Z,8.08
2023-01-11T19:04:36.780Z,8.10
2023-01-11T19:07:04.818Z,8.05
2023-01-11T19:09:35.711Z,8.20
2023-01-11T19:12:03.672Z,8.19
2023-01-11T19:14:31.740Z,8.21
2023-01-11T19:17:00.201Z,8.23
2023-01-11T19:19:28.188Z,8.14
2023-01-11T19:21:57.600Z,8.16
2023-01-11T19:24:25.456Z,8.19
2023-01-11T19:26:53.763Z,8.32
2023-01-11T19:29:24.618Z,8.33
2023-01-11T19:31:55.598Z,8.30
2023-01-11T19:34:24.505Z,8.02
2023-01-11T19:36:53.261Z,7.66
2023-01-11T19:39:22.823Z,7.51
2023-01-11T19:41:59.854Z,7.52
2023-01-11T19:44:31.515Z,7.39
2023-01-11T19:47:10.961Z,7.38
2023-01-11T19:49:39.973Z,7.39
2023-01-11T19:52:12.711Z,7.26
2023-01-11T19:54:43.811Z,7.22
2023-01-11T19:57:12.433Z,7.30
2023-01-11T19:59:42.463Z,7.31
2023-01-11T20:02:13.397Z,7.33
2023-01-11T20:04:43.178Z,7.32
2023-01-11T20:07:13.429Z,7.35
2023-01-11T20:09:42.742Z,7.30
2023-01-11T20:12:16.655Z,7.35
2023-01-11T20:14:46.236Z,7.37
2023-01-11T20:17:16.006Z,7.28
2023-01-11T20:19:46.809Z,7.33
2023-01-11T20:22:23.691Z,7.33
2023-01-11T20:24:53.102Z,7.32
2023-01-11T20:27:22.079Z,7.27
2023-01-11T20:29:50.248Z,7.21
2023-01-11T20:32:40.742Z,7.28
2023-01-11T20:35:11.186Z,7.29
2023-01-11T20:37:39.185Z,7.34
2023-01-11T20:40:14.165Z,7.32
2023-01-11T20:42:42.494Z,7.36
2023-01-11T20:45:12.666Z,7.35
2023-01-11T20:47:40.653Z,7.26
2023-01-11T20:50:10.793Z,7.34
2023-01-11T20:52:38.828Z,7.38
2023-01-11T20:55:07.759Z,7.37
2023-01-11T20:57:37.119Z,7.39
2023-01-11T21:00:07.559Z,7.40
2023-01-11T21:02:35.657Z,7.41
2023-01-11T21:05:04.539Z,7.39
2023-01-11T21:07:32.908Z,7.40
2023-01-11T21:10:00.888Z,7.38
2023-01-11T21:12:31.795Z,7.33
2023-01-11T21:15:07.124Z,7.45
2023-01-11T21:17:37.081Z,7.55
2023-01-11T21:20:07.300Z,7.58
2023-01-11T21:22:35.230Z,7.51
2023-01-11T21:25:04.274Z,7.54
2023-01-11T21:27:32.435Z,7.59
2023-01-11T21:30:01.918Z,7.54
2023-01-11T21:32:30.082Z,7.52
2023-01-11T21:34:59.565Z,7.56
2023-01-11T21:37:27.587Z,7.50
2023-01-11T21:39:56.633Z,7.54
2023-01-11T21:42:24.702Z,7.66
2023-01-11T21:44:56.330Z,7.54
2023-01-11T21:47:25.799Z,7.75
2023-01-11T21:49:55.026Z,7.79
2023-01-11T21:52:22.979Z,7.88
2023-01-11T21:54:53.780Z,7.96
2023-01-11T21:57:22.996Z,7.93
2023-01-11T21:59:51.951Z,7.69
2023-01-11T22:02:20.167Z,7.69
2023-01-11T22:04:53.179Z,7.64
2023-01-11T22:07:34.933Z,7.67
2023-01-11T22:10:05.286Z,7.68
2023-01-11T22:12:34.699Z,7.75
2023-01-11T22:15:02.830Z,7.85
2023-01-11T22:17:31.059Z,7.80
2023-01-11T22:20:00.368Z,7.91
2023-01-11T22:22:29.196Z,7.67
2023-01-11T22:24:57.193Z,7.79
2023-01-11T22:27:25.348Z,7.86
2023-01-11T22:29:54.816Z,7.86
2023-01-11T22:32:23.138Z,7.88
2023-01-11T22:34:51.202Z,7.93
2023-01-11T22:37:20.752Z,7.84
2023-01-11T22:39:48.717Z,7.99
2023-01-11T22:42:17.193Z,7.90
2023-01-11T22:44:45.235Z,7.92
2023-01-11T22:47:13.303Z,7.83
2023-01-11T22:49:46.636Z,7.84
2023-01-11T22:52:14.539Z,7.84
2023-01-11T22:54:49.346Z,7.82
2023-01-11T22:57:17.570Z,7.80
2023-01-11T22:59:45.846Z,7.85
2023-01-11T23:02:13.979Z,8.01
2023-01-11T23:04:51.489Z,7.86
2023-01-11T23:07:21.993Z,7.71
2023-01-11T23:09:51.260Z,7.78
2023-01-11T23:12:36.827Z,7.68
2023-01-11T23:15:06.665Z,7.78
2023-01-11T23:17:40.418Z,7.64
2023-01-11T23:20:09.937Z,7.88
2023-01-11T23:22:37.958Z,7.76
2023-01-11T23:25:08.749Z,7.79
2023-01-11T23:27:37.979Z,7.65
2023-01-11T23:30:08.607Z,7.84
2023-01-11T23:32:36.502Z,7.67
2023-01-11T23:35:05.473Z,7.72
2023-01-11T23:37:33.857Z,7.69
2023-01-11T23:40:02.119Z,7.72
2023-01-11T23:42:30.553Z,7.71
2023-01-11T23:44:58.934Z,7.75
2023-01-11T23:47:29.720Z,7.82
2023-01-11T23:50:00.366Z,7.69
2023-01-11T23:52:33.162Z,7.86
2023-01-11T23:55:01.088Z,7.90
2023-01-11T23:57:50.680Z,7.93
